sensor_id;sensor_type;location;lat;lon;timestamp;pressure;altitude;pressure_sealevel;temperature;humidity
78841;BME280;68379;47.190;27.558;2023-08-06T00:00:54;98792.70;;;23.13;56.08
78841;BME280;68379;47.190;27.558;2023-08-06T00:03:44;98792.40;;;23.10;55.88
78841;BME280;68379;47.190;27.558;2023-08-06T00:06:12;98787.90;;;23.09;56.51
78841;BME280;68379;47.190;27.558;2023-08-06T00:08:41;98783.51;;;23.06;55.89
78841;BME280;68379;47.190;27.558;2023-08-06T00:11:10;98785.77;;;23.05;56.02
78841;BME280;68379;47.190;27.558;2023-08-06T00:13:40;98784.65;;;23.04;56.30
78841;BME280;68379;47.190;27.558;2023-08-06T00:16:10;98784.88;;;23.03;56.20
78841;BME280;68379;47.190;27.558;2023-08-06T00:18:40;98784.55;;;23.03;56.25
78841;BME280;68379;47.190;27.558;2023-08-06T00:21:09;98787.28;;;23.03;56.26
78841;BME280;68379;47.190;27.558;2023-08-06T00:23:41;98786.80;;;23.00;56.21
78841;BME280;68379;47.190;27.558;2023-08-06T00:26:10;98785.59;;;22.98;56.02
78841;BME280;68379;47.190;27.558;2023-08-06T00:28:39;98784.97;;;22.96;55.97
78841;BME280;68379;47.190;27.558;2023-08-06T00:31:08;98785.44;;;22.93;56.51
78841;BME280;68379;47.190;27.558;2023-08-06T00:33:36;98782.94;;;22.91;56.74
78841;BME280;68379;47.190;27.558;2023-08-06T00:36:06;98777.31;;;22.90;56.57
78841;BME280;68379;47.190;27.558;2023-08-06T00:38:35;98781.77;;;22.88;56.53
78841;BME280;68379;47.190;27.558;2023-08-06T00:41:04;98773.27;;;22.85;56.53
78841;BME280;68379;47.190;27.558;2023-08-06T00:43:33;98776.92;;;22.81;56.27
78841;BME280;68379;47.190;27.558;2023-08-06T00:46:02;98769.84;;;22.79;56.38
78841;BME280;68379;47.190;27.558;2023-08-06T00:48:31;98766.71;;;22.74;56.48
78841;BME280;68379;47.190;27.558;2023-08-06T00:51:01;98767.48;;;22.71;56.59
78841;BME280;68379;47.190;27.558;2023-08-06T00:53:30;98766.39;;;22.65;56.80
78841;BME280;68379;47.190;27.558;2023-08-06T00:55:59;98767.45;;;22.60;57.00
78841;BME280;68379;47.190;27.558;2023-08-06T00:58:29;98767.15;;;22.55;57.15
78841;BME280;68379;47.190;27.558;2023-08-06T01:00:58;98764.69;;;22.51;56.88
78841;BME280;68379;47.190;27.558;2023-08-06T01:03:27;98764.84;;;22.50;56.90
78841;BME280;68379;47.190;27.558;2023-08-06T01:05:56;98762.88;;;22.50;56.88
78841;BME280;68379;47.190;27.558;2023-08-06T01:08:33;98758.80;;;22.49;57.12
78841;BME280;68379;47.190;27.558;2023-08-06T01:11:18;98758.73;;;22.48;57.11
78841;BME280;68379;47.190;27.558;2023-08-06T01:13:58;98761.83;;;22.48;57.41
78841;BME280;68379;47.190;27.558;2023-08-06T01:16:29;98759.60;;;22.47;57.76
78841;BME280;68379;47.190;27.558;2023-08-06T01:18:59;98758.55;;;22.44;57.76
78841;BME280;68379;47.190;27.558;2023-08-06T01:21:28;98757.75;;;22.43;58.16
78841;BME280;68379;47.190;27.558;2023-08-06T01:23:56;98753.63;;;22.43;58.50
78841;BME280;68379;47.190;27.558;2023-08-06T01:26:29;98751.99;;;22.41;58.12
78841;BME280;68379;47.190;27.558;2023-08-06T01:29:06;98752.27;;;22.41;58.59
78841;BME280;68379;47.190;27.558;2023-08-06T01:31:38;98749.64;;;22.42;59.06
78841;BME280;68379;47.190;27.558;2023-08-06T01:34:16;98743.05;;;22.41;59.23
78841;BME280;68379;47.190;27.558;2023-08-06T01:36:46;98737.71;;;22.40;59.96
78841;BME280;68379;47.190;27.558;2023-08-06T01:39:15;98734.88;;;22.38;59.77
78841;BME280;68379;47.190;27.558;2023-08-06T01:41:44;98731.05;;;22.35;60.12
78841;BME280;68379;47.190;27.558;2023-08-06T01:44:13;98729.12;;;22.32;60.44
78841;BME280;68379;47.190;27.558;2023-08-06T01:46:42;98729.20;;;22.28;60.87
78841;BME280;68379;47.190;27.558;2023-08-06T01:49:12;98721.59;;;22.23;61.12
78841;BME280;68379;47.190;27.558;2023-08-06T01:51:41;98716.65;;;22.18;61.26
78841;BME280;68379;47.190;27.558;2023-08-06T01:54:09;98712.59;;;22.12;61.50
78841;BME280;68379;47.190;27.558;2023-08-06T01:56:38;98711.23;;;22.07;61.53
78841;BME280;68379;47.190;27.558;2023-08-06T01:59:07;98710.23;;;22.01;61.95
78841;BME280;68379;47.190;27.558;2023-08-06T02:01:36;98704.56;;;21.94;62.65
78841;BME280;68379;47.190;27.558;2023-08-06T02:04:05;98708.52;;;21.89;62.71
78841;BME280;68379;47.190;27.558;2023-08-06T02:06:34;98707.52;;;21.85;63.08
78841;BME280;68379;47.190;27.558;2023-08-06T02:09:03;98703.08;;;21.81;63.41
78841;BME280;68379;47.190;27.558;2023-08-06T02:11:31;98697.80;;;21.78;63.33
78841;BME280;68379;47.190;27.558;2023-08-06T02:14:00;98701.50;;;21.76;63.83
78841;BME280;68379;47.190;27.558;2023-08-06T02:16:29;98698.31;;;21.74;64.18
78841;BME280;68379;47.190;27.558;2023-08-06T02:18:58;98699.20;;;21.70;63.74
78841;BME280;68379;47.190;27.558;2023-08-06T02:21:27;98696.44;;;21.68;63.90
78841;BME280;68379;47.190;27.558;2023-08-06T02:23:56;98694.90;;;21.67;64.11
78841;BME280;68379;47.190;27.558;2023-08-06T02:26:25;98694.38;;;21.67;64.40
78841;BME280;68379;47.190;27.558;2023-08-06T02:28:54;98698.02;;;21.67;64.63
78841;BME280;68379;47.190;27.558;2023-08-06T02:31:23;98695.84;;;21.66;64.70
78841;BME280;68379;47.190;27.558;2023-08-06T02:33:52;98692.38;;;21.67;65.20
78841;BME280;68379;47.190;27.558;2023-08-06T02:36:22;98690.48;;;21.67;65.14
78841;BME280;68379;47.190;27.558;2023-08-06T02:38:51;98690.23;;;21.67;65.80
78841;BME280;68379;47.190;27.558;2023-08-06T02:41:20;98684.72;;;21.66;66.38
78841;BME280;68379;47.190;27.558;2023-08-06T02:43:49;98680.53;;;21.67;66.45
78841;BME280;68379;47.190;27.558;2023-08-06T02:46:18;98675.55;;;21.66;66.02
78841;BME280;68379;47.190;27.558;2023-08-06T02:48:47;98669.26;;;21.66;66.45
78841;BME280;68379;47.190;27.558;2023-08-06T02:51:16;98663.11;;;21.65;66.44
78841;BME280;68379;47.190;27.558;2023-08-06T02:53:45;98664.85;;;21.64;66.87
78841;BME280;68379;47.190;27.558;2023-08-06T02:56:14;98665.08;;;21.61;66.67
78841;BME280;68379;47.190;27.558;2023-08-06T02:58:43;98663.79;;;21.58;67.23
78841;BME280;68379;47.190;27.558;2023-08-06T03:01:12;98666.16;;;21.56;67.24
78841;BME280;68379;47.190;27.558;2023-08-06T03:03:42;98655.94;;;21.52;67.28
78841;BME280;68379;47.190;27.558;2023-08-06T03:06:11;98656.54;;;21.52;67.05
78841;BME280;68379;47.190;27.558;2023-08-06T03:08:40;98655.08;;;21.50;67.35
78841;BME280;68379;47.190;27.558;2023-08-06T03:11:09;98651.66;;;21.48;68.06
78841;BME280;68379;47.190;27.558;2023-08-06T03:13:38;98646.46;;;21.47;67.58
78841;BME280;68379;47.190;27.558;2023-08-06T03:16:07;98650.09;;;21.46;69.07
78841;BME280;68379;47.190;27.558;2023-08-06T03:18:36;98653.48;;;21.47;69.35
78841;BME280;68379;47.190;27.558;2023-08-06T03:21:05;98653.16;;;21.46;68.86
78841;BME280;68379;47.190;27.558;2023-08-06T03:23:34;98652.96;;;21.47;68.78
78841;BME280;68379;47.190;27.558;2023-08-06T03:26:04;98650.88;;;21.47;68.99
78841;BME280;68379;47.190;27.558;2023-08-06T03:28:33;98644.26;;;21.49;68.13
78841;BME280;68379;47.190;27.558;2023-08-06T03:31:03;98640.45;;;21.49;68.31
78841;BME280;68379;47.190;27.558;2023-08-06T03:33:32;98646.14;;;21.50;68.40
78841;BME280;68379;47.190;27.558;2023-08-06T03:36:01;98639.55;;;21.51;68.01
78841;BME280;68379;47.190;27.558;2023-08-06T03:38:30;98642.79;;;21.54;67.81
78841;BME280;68379;47.190;27.558;2023-08-06T03:40:59;98645.31;;;21.57;69.47
78841;BME280;68379;47.190;27.558;2023-08-06T03:43:28;98641.78;;;21.59;69.36
78841;BME280;68379;47.190;27.558;2023-08-06T03:45:57;98640.51;;;21.60;69.86
78841;BME280;68379;47.190;27.558;2023-08-06T03:48:26;98644.59;;;21.61;69.29
78841;BME280;68379;47.190;27.558;2023-08-06T03:50:55;98643.79;;;21.64;69.53
78841;BME280;68379;47.190;27.558;2023-08-06T03:53:25;98644.35;;;21.66;69.48
78841;BME280;68379;47.190;27.558;2023-08-06T03:55:54;98643.25;;;21.68;69.18
78841;BME280;68379;47.190;27.558;2023-08-06T03:58:24;98640.25;;;21.70;68.82
78841;BME280;68379;47.190;27.558;2023-08-06T04:00:59;98642.13;;;21.75;69.16
78841;BME280;68379;47.190;27.558;2023-08-06T04:03:28;98640.70;;;21.79;69.49
78841;BME280;68379;47.190;27.558;2023-08-06T04:05:57;98635.66;;;21.83;69.47
78841;BME280;68379;47.190;27.558;2023-08-06T04:08:26;98632.36;;;21.85;69.84
78841;BME280;68379;47.190;27.558;2023-08-06T04:10:55;98628.89;;;21.86;70.36
78841;BME280;68379;47.190;27.558;2023-08-06T04:13:24;98619.52;;;21.86;70.84
78841;BME280;68379;47.190;27.558;2023-08-06T04:15:53;98619.64;;;21.88;70.35
78841;BME280;68379;47.190;27.558;2023-08-06T04:18:22;98621.58;;;21.92;70.05
78841;BME280;68379;47.190;27.558;2023-08-06T04:20:51;98623.58;;;21.98;69.94
78841;BME280;68379;47.190;27.558;2023-08-06T04:23:20;98629.34;;;22.06;70.19
78841;BME280;68379;47.190;27.558;2023-08-06T04:25:49;98629.80;;;22.13;69.44
78841;BME280;68379;47.190;27.558;2023-08-06T04:28:19;98627.87;;;22.25;69.44
78841;BME280;68379;47.190;27.558;2023-08-06T04:30:48;98621.09;;;22.34;69.60
78841;BME280;68379;47.190;27.558;2023-08-06T04:33:16;98613.27;;;22.43;69.60
78841;BME280;68379;47.190;27.558;2023-08-06T04:35:46;98607.12;;;22.50;69.88
78841;BME280;68379;47.190;27.558;2023-08-06T04:38:15;98615.70;;;22.59;69.85
78841;BME280;68379;47.190;27.558;2023-08-06T04:40:44;98605.27;;;22.65;69.37
78841;BME280;68379;47.190;27.558;2023-08-06T04:43:14;98613.40;;;22.73;68.91
78841;BME280;68379;47.190;27.558;2023-08-06T04:45:48;98617.13;;;22.82;68.92
78841;BME280;68379;47.190;27.558;2023-08-06T04:48:18;98616.48;;;22.91;68.20
78841;BME280;68379;47.190;27.558;2023-08-06T04:50:47;98614.44;;;23.03;68.14
78841;BME280;68379;47.190;27.558;2023-08-06T04:53:16;98611.92;;;23.15;68.25
78841;BME280;68379;47.190;27.558;2023-08-06T04:55:45;98610.59;;;23.23;67.95
78841;BME280;68379;47.190;27.558;2023-08-06T04:58:14;98609.27;;;23.32;67.71
78841;BME280;68379;47.190;27.558;2023-08-06T05:00:44;98608.06;;;23.40;67.60
78841;BME280;68379;47.190;27.558;2023-08-06T05:03:12;98609.34;;;23.46;67.36
78841;BME280;68379;47.190;27.558;2023-08-06T05:05:42;98615.74;;;23.53;67.35
78841;BME280;68379;47.190;27.558;2023-08-06T05:08:15;98613.95;;;23.62;67.32
78841;BME280;68379;47.190;27.558;2023-08-06T05:10:45;98611.06;;;23.73;67.00
78841;BME280;68379;47.190;27.558;2023-08-06T05:13:14;98609.66;;;23.80;66.98
78841;BME280;68379;47.190;27.558;2023-08-06T05:15:43;98607.41;;;23.92;66.90
78841;BME280;68379;47.190;27.558;2023-08-06T05:18:14;98608.51;;;24.04;66.44
78841;BME280;68379;47.190;27.558;2023-08-06T05:20:43;98610.55;;;24.15;66.15
78841;BME280;68379;47.190;27.558;2023-08-06T05:23:12;98607.02;;;24.23;66.04
78841;BME280;68379;47.190;27.558;2023-08-06T05:25:41;98602.27;;;24.35;65.87
78841;BME280;68379;47.190;27.558;2023-08-06T05:28:10;98596.11;;;24.46;65.76
78841;BME280;68379;47.190;27.558;2023-08-06T05:30:41;98593.74;;;24.59;65.39
78841;BME280;68379;47.190;27.558;2023-08-06T05:33:10;98601.70;;;24.75;65.25
78841;BME280;68379;47.190;27.558;2023-08-06T05:35:41;98602.80;;;24.90;64.76
78841;BME280;68379;47.190;27.558;2023-08-06T05:38:10;98597.73;;;25.04;64.05
78841;BME280;68379;47.190;27.558;2023-08-06T05:40:39;98596.61;;;25.18;63.85
78841;BME280;68379;47.190;27.558;2023-08-06T05:43:08;98597.60;;;25.31;62.55
78841;BME280;68379;47.190;27.558;2023-08-06T05:45:37;98589.33;;;25.41;62.62
78841;BME280;68379;47.190;27.558;2023-08-06T05:48:06;98588.62;;;25.50;61.76
78841;BME280;68379;47.190;27.558;2023-08-06T05:50:35;98594.60;;;25.57;61.97
78841;BME280;68379;47.190;27.558;2023-08-06T05:53:04;98591.58;;;25.64;61.05
78841;BME280;68379;47.190;27.558;2023-08-06T05:55:33;98592.05;;;25.69;60.86
78841;BME280;68379;47.190;27.558;2023-08-06T05:58:02;98587.70;;;25.76;60.70
78841;BME280;68379;47.190;27.558;2023-08-06T06:00:31;98581.87;;;25.84;60.59
78841;BME280;68379;47.190;27.558;2023-08-06T06:03:00;98577.66;;;25.94;60.21
78841;BME280;68379;47.190;27.558;2023-08-06T06:05:29;98582.30;;;26.04;58.49
78841;BME280;68379;47.190;27.558;2023-08-06T06:07:58;98582.84;;;26.10;57.66
78841;BME280;68379;47.190;27.558;2023-08-06T06:10:27;98581.38;;;26.21;57.99
78841;BME280;68379;47.190;27.558;2023-08-06T06:12:56;98578.67;;;26.35;58.16
78841;BME280;68379;47.190;27.558;2023-08-06T06:15:25;98576.73;;;26.49;56.33
78841;BME280;68379;47.190;27.558;2023-08-06T06:17:54;98573.52;;;26.60;56.25
78841;BME280;68379;47.190;27.558;2023-08-06T06:20:23;98573.51;;;26.72;56.03
78841;BME280;68379;47.190;27.558;2023-08-06T06:22:53;98575.70;;;26.83;54.72
78841;BME280;68379;47.190;27.558;2023-08-06T06:25:22;98573.05;;;26.91;55.02
78841;BME280;68379;47.190;27.558;2023-08-06T06:27:51;98569.85;;;27.03;54.56
78841;BME280;68379;47.190;27.558;2023-08-06T06:30:20;98570.80;;;27.13;54.23
78841;BME280;68379;47.190;27.558;2023-08-06T06:32:50;98571.80;;;27.22;52.69
78841;BME280;68379;47.190;27.558;2023-08-06T06:35:19;98568.58;;;27.33;53.26
78841;BME280;68379;47.190;27.558;2023-08-06T06:37:49;98566.52;;;27.45;53.70
78841;BME280;68379;47.190;27.558;2023-08-06T06:40:18;98565.17;;;27.59;53.15
78841;BME280;68379;47.190;27.558;2023-08-06T06:42:47;98563.99;;;27.67;52.00
78841;BME280;68379;47.190;27.558;2023-08-06T06:45:17;98559.73;;;27.76;51.00
78841;BME280;68379;47.190;27.558;2023-08-06T06:47:46;98557.45;;;27.84;50.32
78841;BME280;68379;47.190;27.558;2023-08-06T06:50:15;98560.09;;;27.96;50.92
78841;BME280;68379;47.190;27.558;2023-08-06T06:52:44;98563.98;;;28.10;51.19
78841;BME280;68379;47.190;27.558;2023-08-06T06:55:13;98563.36;;;28.18;49.37
78841;BME280;68379;47.190;27.558;2023-08-06T06:57:42;98562.81;;;28.22;48.43
78841;BME280;68379;47.190;27.558;2023-08-06T07:00:13;98561.06;;;28.25;48.52
78841;BME280;68379;47.190;27.558;2023-08-06T07:02:42;98556.13;;;28.24;48.48
78841;BME280;68379;47.190;27.558;2023-08-06T07:05:12;98551.81;;;28.30;48.43
78841;BME280;68379;47.190;27.558;2023-08-06T07:07:41;98556.73;;;28.40;48.39
78841;BME280;68379;47.190;27.558;2023-08-06T07:10:11;98557.38;;;28.50;48.67
78841;BME280;68379;47.190;27.558;2023-08-06T07:12:40;98560.33;;;28.64;48.40
78841;BME280;68379;47.190;27.558;2023-08-06T07:15:10;98559.70;;;28.73;47.13
78841;BME280;68379;47.190;27.558;2023-08-06T07:17:39;98559.04;;;28.78;47.63
78841;BME280;68379;47.190;27.558;2023-08-06T07:20:10;98556.44;;;28.86;47.77
78841;BME280;68379;47.190;27.558;2023-08-06T07:22:39;98553.04;;;28.96;47.56
78841;BME280;68379;47.190;27.558;2023-08-06T07:25:08;98549.25;;;29.01;46.90
78841;BME280;68379;47.190;27.558;2023-08-06T07:27:38;98549.25;;;29.05;46.58
78841;BME280;68379;47.190;27.558;2023-08-06T07:30:09;98547.42;;;29.07;46.31
78841;BME280;68379;47.190;27.558;2023-08-06T07:32:39;98540.72;;;29.08;46.54
78841;BME280;68379;47.190;27.558;2023-08-06T07:35:09;98538.41;;;29.12;46.69
78841;BME280;68379;47.190;27.558;2023-08-06T07:37:40;98535.75;;;29.21;46.65
78841;BME280;68379;47.190;27.558;2023-08-06T07:40:11;98529.61;;;29.32;46.72
78841;BME280;68379;47.190;27.558;2023-08-06T07:42:40;98530.23;;;29.43;45.80
78841;BME280;68379;47.190;27.558;2023-08-06T07:45:11;98525.93;;;29.53;45.74
78841;BME280;68379;47.190;27.558;2023-08-06T07:47:40;98521.19;;;29.65;46.03
78841;BME280;68379;47.190;27.558;2023-08-06T07:50:09;98514.51;;;29.80;45.42
78841;BME280;68379;47.190;27.558;2023-08-06T07:52:38;98515.35;;;29.95;45.18
78841;BME280;68379;47.190;27.558;2023-08-06T07:55:09;98514.05;;;30.07;44.08
78841;BME280;68379;47.190;27.558;2023-08-06T07:57:38;98506.97;;;30.16;43.50
78841;BME280;68379;47.190;27.558;2023-08-06T08:00:08;98505.14;;;30.18;43.11
78841;BME280;68379;47.190;27.558;2023-08-06T08:02:38;98503.65;;;30.21;42.09
78841;BME280;68379;47.190;27.558;2023-08-06T08:05:08;98504.21;;;30.28;42.02
78841;BME280;68379;47.190;27.558;2023-08-06T08:07:37;98501.93;;;30.38;42.10
78841;BME280;68379;47.190;27.558;2023-08-06T08:10:08;98490.86;;;30.50;42.11
78841;BME280;68379;47.190;27.558;2023-08-06T08:12:37;98483.67;;;30.61;42.17
78841;BME280;68379;47.190;27.558;2023-08-06T08:15:08;98480.53;;;30.59;41.21
78841;BME280;68379;47.190;27.558;2023-08-06T08:17:37;98489.58;;;30.63;41.82
78841;BME280;68379;47.190;27.558;2023-08-06T08:20:08;98492.25;;;30.76;42.38
78841;BME280;68379;47.190;27.558;2023-08-06T08:22:37;98492.80;;;30.91;41.78
78841;BME280;68379;47.190;27.558;2023-08-06T08:25:07;98487.20;;;30.98;40.16
78841;BME280;68379;47.190;27.558;2023-08-06T08:27:36;98478.57;;;31.06;40.16
78841;BME280;68379;47.190;27.558;2023-08-06T08:30:07;98484.39;;;31.21;40.08
78841;BME280;68379;47.190;27.558;2023-08-06T08:32:36;98483.33;;;31.33;39.99
78841;BME280;68379;47.190;27.558;2023-08-06T08:35:07;98485.92;;;31.44;40.73
78841;BME280;68379;47.190;27.558;2023-08-06T08:37:36;98485.26;;;31.47;39.67
78841;BME280;68379;47.190;27.558;2023-08-06T08:40:08;98480.88;;;31.42;39.30
78841;BME280;68379;47.190;27.558;2023-08-06T08:42:38;98475.77;;;31.35;39.02
78841;BME280;68379;47.190;27.558;2023-08-06T08:45:12;98473.30;;;31.22;38.33
78841;BME280;68379;47.190;27.558;2023-08-06T08:47:42;98469.55;;;31.19;39.01
78841;BME280;68379;47.190;27.558;2023-08-06T08:50:12;98464.91;;;31.31;39.08
78841;BME280;68379;47.190;27.558;2023-08-06T08:52:43;98456.98;;;31.41;39.12
78841;BME280;68379;47.190;27.558;2023-08-06T08:55:15;98456.23;;;31.51;38.85
78841;BME280;68379;47.190;27.558;2023-08-06T08:57:44;98451.16;;;31.62;38.51
78841;BME280;68379;47.190;27.558;2023-08-06T09:00:14;98454.31;;;31.73;38.59
78841;BME280;68379;47.190;27.558;2023-08-06T09:02:43;98448.77;;;31.80;38.63
78841;BME280;68379;47.190;27.558;2023-08-06T09:05:14;98445.11;;;31.96;38.64
78841;BME280;68379;47.190;27.558;2023-08-06T09:07:46;98444.49;;;32.08;38.81
78841;BME280;68379;47.190;27.558;2023-08-06T09:10:17;98440.96;;;32.15;39.01
78841;BME280;68379;47.190;27.558;2023-08-06T09:12:47;98430.45;;;32.26;39.09
78841;BME280;68379;47.190;27.558;2023-08-06T09:15:17;98423.14;;;32.28;38.48
78841;BME280;68379;47.190;27.558;2023-08-06T09:17:46;98413.54;;;32.30;38.50
78841;BME280;68379;47.190;27.558;2023-08-06T09:20:17;98409.89;;;32.31;38.27
78841;BME280;68379;47.190;27.558;2023-08-06T09:22:46;98411.14;;;32.26;38.22
78841;BME280;68379;47.190;27.558;2023-08-06T09:25:22;98410.36;;;32.26;37.88
78841;BME280;68379;47.190;27.558;2023-08-06T09:27:53;98399.58;;;32.26;37.82
78841;BME280;68379;47.190;27.558;2023-08-06T09:30:31;98397.83;;;32.28;37.79
78841;BME280;68379;47.190;27.558;2023-08-06T09:33:01;98397.07;;;32.35;38.23
78841;BME280;68379;47.190;27.558;2023-08-06T09:35:31;98398.91;;;32.46;38.10
78841;BME280;68379;47.190;27.558;2023-08-06T09:38:08;98388.63;;;32.56;38.23
78841;BME280;68379;47.190;27.558;2023-08-06T09:40:39;98384.94;;;32.67;38.36
78841;BME280;68379;47.190;27.558;2023-08-06T09:43:08;98388.90;;;32.74;38.11
78841;BME280;68379;47.190;27.558;2023-08-06T09:45:40;98389.87;;;32.81;37.97
78841;BME280;68379;47.190;27.558;2023-08-06T09:48:10;98386.48;;;32.89;37.38
78841;BME280;68379;47.190;27.558;2023-08-06T09:50:40;98378.89;;;32.91;37.25
78841;BME280;68379;47.190;27.558;2023-08-06T09:53:09;98373.06;;;32.95;37.22
78841;BME280;68379;47.190;27.558;2023-08-06T09:55:39;98368.09;;;33.03;36.88
78841;BME280;68379;47.190;27.558;2023-08-06T09:58:09;98361.39;;;33.10;36.43
78841;BME280;68379;47.190;27.558;2023-08-06T10:00:38;98354.84;;;33.12;36.77
78841;BME280;68379;47.190;27.558;2023-08-06T10:03:08;98356.02;;;33.10;37.23
78841;BME280;68379;47.190;27.558;2023-08-06T10:05:39;98353.50;;;33.08;36.90
78841;BME280;68379;47.190;27.558;2023-08-06T10:08:09;98355.40;;;33.07;36.49
78841;BME280;68379;47.190;27.558;2023-08-06T10:10:38;98353.59;;;33.15;36.99
78841;BME280;68379;47.190;27.558;2023-08-06T10:13:08;98354.80;;;33.28;37.03
78841;BME280;68379;47.190;27.558;2023-08-06T10:15:38;98344.02;;;33.46;37.08
78841;BME280;68379;47.190;27.558;2023-08-06T10:18:09;98348.70;;;33.69;37.33
78841;BME280;68379;47.190;27.558;2023-08-06T10:20:38;98346.25;;;33.88;36.08
78841;BME280;68379;47.190;27.558;2023-08-06T10:23:07;98344.86;;;33.91;35.18
78841;BME280;68379;47.190;27.558;2023-08-06T10:25:39;98339.49;;;33.95;35.07
78841;BME280;68379;47.190;27.558;2023-08-06T10:28:10;98337.46;;;33.98;34.85
78841;BME280;68379;47.190;27.558;2023-08-06T10:30:45;98336.57;;;34.01;35.03
78841;BME280;68379;47.190;27.558;2023-08-06T10:33:14;98332.98;;;34.08;35.21
78841;BME280;68379;47.190;27.558;2023-08-06T10:35:45;98324.57;;;34.18;35.16
78841;BME280;68379;47.190;27.558;2023-08-06T10:38:18;98315.45;;;34.13;35.38
78841;BME280;68379;47.190;27.558;2023-08-06T10:41:03;98310.49;;;34.12;35.34
78841;BME280;68379;47.190;27.558;2023-08-06T10:43:33;98309.47;;;34.24;35.51
78841;BME280;68379;47.190;27.558;2023-08-06T10:46:04;98305.70;;;34.40;35.01
78841;BME280;68379;47.190;27.558;2023-08-06T10:48:38;98306.34;;;34.46;34.97
78841;BME280;68379;47.190;27.558;2023-08-06T10:51:09;98292.09;;;34.50;35.34
78841;BME280;68379;47.190;27.558;2023-08-06T10:53:41;98290.95;;;34.62;34.95
78841;BME280;68379;47.190;27.558;2023-08-06T10:56:14;98289.52;;;34.65;34.60
78841;BME280;68379;47.190;27.558;2023-08-06T10:58:44;98288.63;;;34.77;34.90
78841;BME280;68379;47.190;27.558;2023-08-06T11:01:14;98284.30;;;34.91;34.49
78841;BME280;68379;47.190;27.558;2023-08-06T11:03:45;98273.80;;;34.83;33.91
78841;BME280;68379;47.190;27.558;2023-08-06T11:06:19;98268.14;;;34.89;33.96
78841;BME280;68379;47.190;27.558;2023-08-06T11:08:52;98264.80;;;35.01;34.01
78841;BME280;68379;47.190;27.558;2023-08-06T11:11:23;98266.19;;;35.14;33.73
78841;BME280;68379;47.190;27.558;2023-08-06T11:13:52;98259.27;;;35.21;33.24
78841;BME280;68379;47.190;27.558;2023-08-06T11:16:23;98254.69;;;35.21;33.23
78841;BME280;68379;47.190;27.558;2023-08-06T11:18:52;98252.10;;;35.30;32.80
78841;BME280;68379;47.190;27.558;2023-08-06T11:21:22;98247.33;;;35.31;32.51
78841;BME280;68379;47.190;27.558;2023-08-06T11:23:52;98246.63;;;35.40;32.46
78841;BME280;68379;47.190;27.558;2023-08-06T11:26:22;98238.38;;;35.53;31.96
78841;BME280;68379;47.190;27.558;2023-08-06T11:28:51;98227.99;;;35.61;31.66
78841;BME280;68379;47.190;27.558;2023-08-06T11:31:21;98221.75;;;35.73;31.76
78841;BME280;68379;47.190;27.558;2023-08-06T11:33:51;98213.68;;;35.91;31.49
78841;BME280;68379;47.190;27.558;2023-08-06T11:36:31;98214.23;;;35.93;30.87
78841;BME280;68379;47.190;27.558;2023-08-06T11:39:01;98205.45;;;35.89;30.47
78841;BME280;68379;47.190;27.558;2023-08-06T11:41:31;98202.81;;;35.99;30.45
78841;BME280;68379;47.190;27.558;2023-08-06T11:44:01;98201.81;;;36.11;30.54
78841;BME280;68379;47.190;27.558;2023-08-06T11:46:30;98204.28;;;36.28;30.38
78841;BME280;68379;47.190;27.558;2023-08-06T11:49:18;98198.21;;;36.40;29.99
78841;BME280;68379;47.190;27.558;2023-08-06T11:51:50;98194.30;;;36.54;29.84
78841;BME280;68379;47.190;27.558;2023-08-06T11:54:31;98189.69;;;36.69;29.47
78841;BME280;68379;47.190;27.558;2023-08-06T11:57:01;98186.91;;;36.80;29.02
78841;BME280;68379;47.190;27.558;2023-08-06T11:59:31;98178.44;;;36.89;28.73
78841;BME280;68379;47.190;27.558;2023-08-06T12:02:03;98175.99;;;36.88;28.71
78841;BME280;68379;47.190;27.558;2023-08-06T12:04:59;98174.64;;;36.95;28.96
78841;BME280;68379;47.190;27.558;2023-08-06T12:07:29;98167.90;;;37.03;28.39
78841;BME280;68379;47.190;27.558;2023-08-06T12:09:59;98165.35;;;37.10;28.36
78841;BME280;68379;47.190;27.558;2023-08-06T12:12:28;98151.71;;;37.17;28.06
78841;BME280;68379;47.190;27.558;2023-08-06T12:14:58;98153.61;;;37.21;27.61
78841;BME280;68379;47.190;27.558;2023-08-06T12:17:27;98146.69;;;37.21;27.11
78841;BME280;68379;47.190;27.558;2023-08-06T12:19:56;98141.62;;;37.25;26.83
78841;BME280;68379;47.190;27.558;2023-08-06T12:22:26;98130.67;;;37.18;26.21
78841;BME280;68379;47.190;27.558;2023-08-06T12:25:01;98130.34;;;37.32;26.86
78841;BME280;68379;47.190;27.558;2023-08-06T12:27:30;98123.48;;;37.39;25.78
78841;BME280;68379;47.190;27.558;2023-08-06T12:29:59;98119.24;;;37.30;25.79
78841;BME280;68379;47.190;27.558;2023-08-06T12:32:28;98119.68;;;37.34;26.48
78841;BME280;68379;47.190;27.558;2023-08-06T12:34:57;98122.27;;;37.44;26.43
78841;BME280;68379;47.190;27.558;2023-08-06T12:37:27;98114.48;;;37.53;26.69
78841;BME280;68379;47.190;27.558;2023-08-06T12:39:56;98111.85;;;37.76;26.66
78841;BME280;68379;47.190;27.558;2023-08-06T12:42:25;98106.95;;;37.93;25.91
78841;BME280;68379;47.190;27.558;2023-08-06T12:44:54;98099.86;;;37.95;25.66
78841;BME280;68379;47.190;27.558;2023-08-06T12:47:23;98090.85;;;38.00;25.25
78841;BME280;68379;47.190;27.558;2023-08-06T12:49:51;98085.73;;;38.00;25.10
78841;BME280;68379;47.190;27.558;2023-08-06T12:52:20;98086.15;;;38.02;24.87
78841;BME280;68379;47.190;27.558;2023-08-06T12:54:49;98082.92;;;38.17;24.98
78841;BME280;68379;47.190;27.558;2023-08-06T12:57:18;98072.20;;;38.39;25.00
78841;BME280;68379;47.190;27.558;2023-08-06T12:59:47;98067.91;;;38.47;24.80
78841;BME280;68379;47.190;27.558;2023-08-06T13:02:16;98072.98;;;38.53;24.34
78841;BME280;68379;47.190;27.558;2023-08-06T13:04:47;98068.35;;;38.43;23.88